Time;durP1;ratioP1;P1;durP2;ratioP2;P2;SDS_P1;SDS_P2;PMS_P1;PMS_P2;Temp;Humidity;BMP_temperature;BMP_pressure;BME280_temperature;BME280_humidity;BME280_pressure;Samples;Min_cycle;Max_cycle;Signal;HPM_P1;HPM_P2
2023/09/02 00:01:44;;;;;;;9.57;6.87;;;15.00;99.90;;;;;;4185222;28;20699;-74
2023/09/02 00:03:47;;;;;;;8.67;6.50;;;15.00;99.90;;;;;;4186968;28;20267;-74
2023/09/02 00:05:49;;;;;;;10.50;7.03;;;15.00;99.90;;;;;;4186311;28;20264;-74
2023/09/02 00:07:51;;;;;;;9.03;6.83;;;15.00;99.90;;;;;;4186269;28;20289;-74
2023/09/02 00:09:53;;;;;;;8.97;6.57;;;15.00;99.90;;;;;;4188556;28;20210;-74
2023/09/02 00:11:55;;;;;;;9.13;6.97;;;15.00;99.90;;;;;;4184489;28;20214;-74
2023/09/02 00:13:57;;;;;;;8.97;6.33;;;14.90;99.90;;;;;;4188852;28;20259;-74
2023/09/02 00:15:58;;;;;;;9.60;6.33;;;14.90;99.90;;;;;;4186280;28;20205;-74
2023/09/02 00:17:59;;;;;;;11.40;6.90;;;14.80;99.90;;;;;;4183915;28;20199;-74
2023/09/02 00:20:05;;;;;;;8.10;6.17;;;14.80;99.90;;;;;;4189181;28;20203;-74
2023/09/02 00:22:06;;;;;;;7.47;5.60;;;14.80;99.90;;;;;;4187349;28;20569;-74
2023/09/02 00:24:09;;;;;;;7.30;5.40;;;14.80;99.90;;;;;;4185874;28;20214;-74
2023/09/02 00:26:11;;;;;;;19.23;7.70;;;14.80;99.90;;;;;;4186002;28;20623;-74
2023/09/02 00:28:12;;;;;;;8.47;6.27;;;14.80;99.90;;;;;;4186100;28;20267;-74
2023/09/02 00:30:14;;;;;;;7.87;5.80;;;14.80;99.90;;;;;;4189223;28;20287;-74
2023/09/02 00:32:15;;;;;;;9.27;6.43;;;14.80;99.90;;;;;;4187193;28;20238;-74
2023/09/02 00:34:19;;;;;;;8.73;6.40;;;14.80;99.90;;;;;;4190823;28;20202;-75
2023/09/02 00:36:23;;;;;;;8.87;6.70;;;14.80;99.90;;;;;;4191139;28;20826;-75
2023/09/02 00:38:25;;;;;;;11.07;7.50;;;14.80;99.90;;;;;;4188678;28;20210;-75
2023/09/02 00:40:29;;;;;;;10.33;7.00;;;14.80;99.90;;;;;;4185744;28;20292;-75
2023/09/02 00:42:33;;;;;;;9.17;6.77;;;14.70;99.90;;;;;;4188172;28;20198;-75
2023/09/02 00:44:36;;;;;;;8.83;6.43;;;14.70;99.90;;;;;;4190406;28;20259;-75
2023/09/02 00:46:38;;;;;;;8.30;6.00;;;14.70;99.90;;;;;;4189612;28;20210;-75
2023/09/02 00:48:39;;;;;;;8.67;5.70;;;14.70;99.90;;;;;;4184891;28;20275;-75
2023/09/02 00:50:41;;;;;;;9.03;5.83;;;14.70;99.90;;;;;;4186951;28;20227;-75
2023/09/02 00:52:44;;;;;;;7.37;5.47;;;14.70;99.90;;;;;;4185632;28;20279;-75
2023/09/02 00:54:46;;;;;;;7.20;5.10;;;14.70;99.90;;;;;;4188797;28;20749;-75
2023/09/02 00:56:48;;;;;;;7.00;5.40;;;14.70;99.90;;;;;;4189227;28;20254;-75
2023/09/02 00:58:51;;;;;;;7.30;5.40;;;14.70;99.90;;;;;;4189125;28;20243;-75
2023/09/02 01:00:53;;;;;;;8.00;5.83;;;14.70;99.90;;;;;;4190548;28;21734;-75
2023/09/02 01:02:55;;;;;;;7.77;5.37;;;14.70;99.90;;;;;;4189217;28;20202;-75
2023/09/02 01:04:59;;;;;;;7.63;5.53;;;14.70;99.90;;;;;;4187308;28;20248;-75
2023/09/02 01:07:03;;;;;;;9.50;6.47;;;14.70;99.90;;;;;;4187879;28;20301;-75
2023/09/02 01:09:07;;;;;;;10.63;7.33;;;14.70;99.90;;;;;;4186937;28;20269;-75
2023/09/02 01:11:09;;;;;;;9.33;6.13;;;14.60;99.90;;;;;;4190043;28;20312;-76
2023/09/02 01:13:12;;;;;;;12.73;6.57;;;14.60;99.90;;;;;;4186701;28;20894;-75
2023/09/02 01:15:13;;;;;;;8.83;6.60;;;14.60;99.90;;;;;;4190998;28;20620;-75
2023/09/02 01:17:15;;;;;;;11.47;6.43;;;14.60;99.90;;;;;;4186042;28;20249;-75
2023/09/02 01:19:19;;;;;;;9.43;7.03;;;14.60;99.90;;;;;;4189434;28;20711;-75
2023/09/02 01:22:04;;;;;;;8.80;6.30;;;14.60;99.90;;;;;;4188066;28;20238;-75
2023/09/02 01:24:38;;;;;;;9.77;6.97;;;14.60;99.90;;;;;;4183566;28;20615;-75
2023/09/02 01:27:07;;;;;;;7.90;6.00;;;14.60;99.90;;;;;;4164719;28;20619;-75
2023/09/02 01:29:13;;;;;;;8.03;5.97;;;14.60;99.90;;;;;;4190283;28;20206;-75
2023/09/02 01:31:18;;;;;;;6.83;5.43;;;14.60;99.90;;;;;;4191159;28;20229;-75
2023/09/02 01:33:22;;;;;;;8.03;5.77;;;14.60;99.90;;;;;;4188976;28;20202;-75
2023/09/02 01:35:27;;;;;;;6.83;5.17;;;14.50;99.90;;;;;;4189966;28;20206;-76
2023/09/02 01:37:30;;;;;;;6.43;5.00;;;14.50;99.90;;;;;;4186851;28;20206;-76
2023/09/02 01:39:34;;;;;;;6.47;5.33;;;14.50;99.90;;;;;;4190466;28;20202;-75
2023/09/02 01:41:36;;;;;;;6.27;4.97;;;14.50;99.90;;;;;;4185811;28;20225;-75
2023/09/02 01:43:40;;;;;;;6.40;5.07;;;14.50;99.90;;;;;;4186529;28;20271;-75
2023/09/02 01:45:43;;;;;;;6.60;4.93;;;14.50;99.90;;;;;;4188365;28;20203;-75
2023/09/02 01:47:45;;;;;;;8.07;5.97;;;14.50;99.90;;;;;;4190055;28;20218;-75
2023/09/02 01:49:47;;;;;;;7.90;5.63;;;14.50;99.90;;;;;;4192495;28;20209;-75
2023/09/02 01:51:50;;;;;;;8.17;5.80;;;14.50;99.90;;;;;;4187993;28;20334;-76
2023/09/02 01:53:52;;;;;;;8.63;6.00;;;14.60;99.90;;;;;;4186363;28;20284;-75
2023/09/02 01:55:54;;;;;;;8.30;6.10;;;14.50;99.90;;;;;;4191760;28;20206;-75
2023/09/02 01:57:57;;;;;;;7.57;5.57;;;14.50;99.90;;;;;;4188893;28;20210;-75
2023/09/02 02:00:00;;;;;;;7.10;5.17;;;14.50;99.90;;;;;;4189716;28;20202;-75
2023/09/02 02:02:02;;;;;;;6.17;4.67;;;14.50;99.90;;;;;;4185202;28;20197;-76
2023/09/02 02:04:11;;;;;;;6.97;5.10;;;14.40;99.90;;;;;;4191675;28;20243;-75
2023/09/02 02:06:14;;;;;;;7.27;4.97;;;14.40;99.90;;;;;;4188177;28;20259;-75
2023/09/02 02:08:25;;;;;;;6.70;5.00;;;14.40;99.90;;;;;;4188821;28;20614;-75
2023/09/02 02:10:30;;;;;;;7.80;4.73;;;14.40;99.90;;;;;;4188241;28;20221;-75
2023/09/02 02:12:33;;;;;;;7.63;4.90;;;14.30;99.90;;;;;;4185062;28;20259;-75
2023/09/02 02:14:35;;;;;;;7.37;5.50;;;14.30;99.90;;;;;;4189785;28;20272;-75
2023/09/02 02:16:38;;;;;;;6.57;4.70;;;14.30;99.90;;;;;;4202898;28;20214;-75
2023/09/02 02:18:40;;;;;;;6.40;4.57;;;14.30;99.90;;;;;;4186167;28;21309;-75
2023/09/02 02:20:50;;;;;;;6.70;5.10;;;14.30;99.90;;;;;;4189822;28;20272;-75
2023/09/02 02:22:51;;;;;;;5.90;4.60;;;14.20;99.90;;;;;;4188871;28;20213;-75
2023/09/02 02:24:53;;;;;;;5.53;4.63;;;14.20;99.90;;;;;;4192986;28;20202;-75
2023/09/02 02:26:55;;;;;;;6.10;4.50;;;14.20;99.90;;;;;;4191550;28;20926;-75
2023/09/02 02:28:56;;;;;;;6.03;4.60;;;14.20;99.90;;;;;;4196600;28;20767;-75
2023/09/02 02:30:58;;;;;;;5.80;4.73;;;14.20;99.90;;;;;;4189420;28;20224;-75
2023/09/02 02:33:00;;;;;;;15.50;4.50;;;14.10;99.90;;;;;;4187604;28;20233;-75
2023/09/02 02:35:03;;;;;;;4.00;3.50;;;14.10;99.90;;;;;;4201836;28;20232;-75
2023/09/02 02:37:05;;;;;;;4.30;3.53;;;14.10;99.90;;;;;;4189032;28;20202;-75
2023/09/02 02:39:08;;;;;;;4.50;3.83;;;14.00;99.90;;;;;;4188351;28;20256;-75
2023/09/02 02:41:09;;;;;;;3.50;3.20;;;14.00;99.90;;;;;;4205582;28;20244;-75
2023/09/02 02:43:11;;;;;;;3.70;3.30;;;14.00;99.90;;;;;;4190179;28;20201;-75
2023/09/02 02:45:13;;;;;;;3.93;3.27;;;14.00;99.90;;;;;;4186208;28;20756;-75
2023/09/02 02:47:15;;;;;;;3.53;3.00;;;13.90;99.90;;;;;;4185847;28;20795;-75
2023/09/02 02:49:19;;;;;;;4.10;3.50;;;13.90;99.90;;;;;;4187487;28;20216;-75
2023/09/02 02:51:21;;;;;;;4.03;3.50;;;13.90;99.90;;;;;;4192540;28;20231;-75
2023/09/02 02:53:23;;;;;;;4.53;3.60;;;13.90;99.90;;;;;;4186680;28;20228;-75
2023/09/02 02:55:24;;;;;;;4.10;3.27;;;13.90;99.90;;;;;;4189288;28;20262;-75
2023/09/02 02:57:27;;;;;;;4.00;3.33;;;13.90;99.90;;;;;;4191085;28;20606;-75
2023/09/02 02:59:31;;;;;;;4.97;3.70;;;13.90;99.90;;;;;;4191663;28;20304;-75
2023/09/02 03:01:33;;;;;;;4.80;3.80;;;13.90;99.90;;;;;;4192167;28;20230;-75
2023/09/02 03:03:35;;;;;;;4.40;3.53;;;13.90;99.90;;;;;;4191547;28;20198;-75
2023/09/02 03:05:39;;;;;;;4.80;3.57;;;13.90;99.90;;;;;;4189039;28;20628;-75
2023/09/02 03:07:41;;;;;;;5.17;3.80;;;13.90;99.90;;;;;;4187962;28;20213;-74
2023/09/02 03:09:43;;;;;;;5.10;3.80;;;13.90;99.90;;;;;;4188171;28;20696;-74
2023/09/02 03:11:45;;;;;;;4.97;3.80;;;13.90;99.90;;;;;;4191055;28;20292;-74
2023/09/02 03:13:47;;;;;;;5.90;3.90;;;13.90;99.90;;;;;;4188400;28;20233;-74
2023/09/02 03:15:49;;;;;;;3.97;3.20;;;13.90;99.90;;;;;;4193114;28;20230;-74
2023/09/02 03:17:51;;;;;;;5.20;3.73;;;13.90;99.90;;;;;;4194634;28;20203;-74
2023/09/02 03:19:53;;;;;;;5.27;3.90;;;13.90;99.90;;;;;;4191030;28;20698;-74
2023/09/02 03:21:56;;;;;;;4.97;3.70;;;13.90;99.90;;;;;;4189535;28;20732;-74
2023/09/02 03:23:58;;;;;;;3.97;3.07;;;13.90;99.90;;;;;;4190021;28;20208;-74
2023/09/02 03:26:07;;;;;;;4.90;3.90;;;13.90;99.90;;;;;;4188894;28;20263;-74
2023/09/02 03:28:09;;;;;;;7.17;4.40;;;13.90;99.90;;;;;;4190054;28;20375;-74
2023/09/02 03:30:12;;;;;;;5.50;3.90;;;13.90;99.90;;;;;;4204648;28;20221;-74
2023/09/02 03:32:13;;;;;;;5.13;4.00;;;13.90;99.90;;;;;;4188645;28;20253;-74
2023/09/02 03:34:14;;;;;;;4.97;3.37;;;13.90;99.90;;;;;;4191678;28;20572;-74
2023/09/02 03:36:17;;;;;;;4.63;3.57;;;13.90;99.90;;;;;;4190585;28;20196;-74
2023/09/02 03:38:23;;;;;;;4.67;3.30;;;13.90;99.90;;;;;;4188898;28;20296;-74
2023/09/02 03:40:25;;;;;;;5.33;3.67;;;13.90;99.90;;;;;;4187950;28;20225;-74
2023/09/02 03:42:27;;;;;;;7.10;4.90;;;13.90;99.90;;;;;;4190430;28;20218;-74
2023/09/02 03:44:29;;;;;;;6.57;4.33;;;13.90;99.90;;;;;;4188235;28;20281;-74
2023/09/02 03:46:31;;;;;;;5.47;3.90;;;13.90;99.90;;;;;;4188240;28;20693;-74
2023/09/02 03:48:32;;;;;;;5.83;4.30;;;13.90;99.90;;;;;;4188092;28;20801;-74
2023/09/02 03:50:54;;;;;;;7.90;5.60;;;13.90;99.90;;;;;;4184584;28;20270;-74
2023/09/02 03:52:56;;;;;;;7.23;5.20;;;13.90;99.90;;;;;;4184661;28;20218;-74
2023/09/02 03:54:59;;;;;;;7.00;5.17;;;13.90;99.90;;;;;;4190642;28;20208;-74
2023/09/02 03:57:02;;;;;;;7.53;4.83;;;13.90;99.90;;;;;;4190404;28;20766;-74
2023/09/02 03:59:04;;;;;;;7.07;5.23;;;13.90;99.90;;;;;;4184114;28;20203;-74
2023/09/02 04:01:06;;;;;;;9.03;5.90;;;13.90;99.90;;;;;;4187910;28;20311;-74
2023/09/02 04:03:09;;;;;;;7.50;5.10;;;13.90;99.90;;;;;;4185164;28;20668;-74
2023/09/02 04:05:10;;;;;;;8.03;5.30;;;13.90;99.90;;;;;;4187615;28;20301;-74
2023/09/02 04:07:12;;;;;;;8.23;5.27;;;14.00;99.90;;;;;;4190503;28;20236;-74
2023/09/02 04:09:15;;;;;;;7.80;5.73;;;13.90;99.90;;;;;;4184995;28;20221;-74
2023/09/02 04:11:17;;;;;;;8.07;5.13;;;13.90;99.90;;;;;;4189612;28;20749;-74
2023/09/02 04:13:19;;;;;;;10.23;5.97;;;13.90;99.90;;;;;;4191441;28;20221;-74
2023/09/02 04:15:21;;;;;;;8.23;5.63;;;13.90;99.90;;;;;;4192270;28;20251;-74
2023/09/02 04:17:23;;;;;;;9.40;5.90;;;13.90;99.90;;;;;;4193265;28;20670;-74
2023/09/02 04:19:24;;;;;;;11.07;5.77;;;13.90;99.90;;;;;;4185402;28;20260;-74
2023/09/02 04:21:26;;;;;;;9.73;6.27;;;13.90;99.90;;;;;;4187772;28;20724;-74
2023/09/02 04:23:28;;;;;;;9.97;6.30;;;13.90;99.90;;;;;;4186000;28;20225;-74
2023/09/02 04:25:30;;;;;;;10.50;6.17;;;14.00;99.90;;;;;;4187579;28;20207;-74
2023/09/02 04:27:32;;;;;;;10.07;5.90;;;13.90;99.90;;;;;;4191585;28;20216;-75
2023/09/02 04:29:34;;;;;;;10.70;6.17;;;14.00;99.90;;;;;;4187980;28;20206;-75
2023/09/02 04:31:36;;;;;;;11.27;6.53;;;14.00;99.90;;;;;;4200136;28;20225;-75
2023/09/02 04:33:38;;;;;;;9.83;6.20;;;14.00;99.90;;;;;;4189092;28;20214;-74
2023/09/02 04:35:42;;;;;;;8.80;5.53;;;14.00;99.90;;;;;;4191258;28;20624;-75
2023/09/02 04:37:44;;;;;;;8.37;5.23;;;14.00;99.90;;;;;;4188788;28;20864;-75
2023/09/02 04:39:45;;;;;;;9.83;6.13;;;14.00;99.90;;;;;;4201915;28;20213;-75
2023/09/02 04:41:47;;;;;;;9.53;6.23;;;14.00;99.90;;;;;;4192329;28;20653;-75
2023/09/02 04:43:50;;;;;;;8.77;6.13;;;14.00;99.90;;;;;;4185935;28;20694;-75
2023/09/02 04:45:52;;;;;;;9.90;6.20;;;14.00;99.90;;;;;;4189643;28;20916;-74
2023/09/02 04:47:56;;;;;;;9.20;6.03;;;14.10;99.90;;;;;;4186804;28;20209;-75
2023/09/02 04:49:58;;;;;;;8.10;5.50;;;14.00;99.90;;;;;;4202173;28;20689;-74
2023/09/02 04:52:00;;;;;;;10.00;5.93;;;14.10;99.90;;;;;;4188182;28;20227;-75
2023/09/02 04:54:02;;;;;;;10.30;6.57;;;14.10;99.90;;;;;;4185654;28;20225;-75
2023/09/02 04:56:05;;;;;;;9.43;6.20;;;14.10;99.90;;;;;;4186854;28;20248;-74
2023/09/02 04:58:08;;;;;;;9.20;6.27;;;14.10;99.90;;;;;;4187219;28;20230;-75
2023/09/02 05:00:13;;;;;;;10.80;7.40;;;14.20;99.90;;;;;;4191306;28;20901;-75
2023/09/02 05:02:15;;;;;;;8.40;6.07;;;14.20;99.90;;;;;;4192066;28;20630;-74
2023/09/02 05:04:17;;;;;;;8.70;6.40;;;14.20;99.90;;;;;;4193839;28;20205;-75
2023/09/02 05:06:18;;;;;;;9.73;6.63;;;14.10;99.90;;;;;;4193688;28;20214;-74
2023/09/02 05:08:19;;;;;;;9.73;7.07;;;14.20;99.90;;;;;;4187773;28;20202;-75
2023/09/02 05:10:20;;;;;;;12.77;7.70;;;14.20;99.90;;;;;;4187913;28;20249;-75
2023/09/02 05:12:22;;;;;;;10.13;6.87;;;14.20;99.90;;;;;;4186447;28;20228;-74
2023/09/02 05:14:24;;;;;;;10.03;6.93;;;14.30;99.90;;;;;;4193110;28;20263;-75
2023/09/02 05:16:27;;;;;;;12.77;7.70;;;14.30;99.90;;;;;;4191698;28;20266;-75
2023/09/02 05:18:29;;;;;;;10.17;7.07;;;14.30;99.90;;;;;;4190712;28;20206;-74
2023/09/02 05:20:31;;;;;;;9.60;6.50;;;14.30;99.90;;;;;;4192429;28;20578;-74
2023/09/02 05:22:33;;;;;;;10.70;7.43;;;14.40;99.90;;;;;;4193365;28;20210;-74
2023/09/02 05:24:35;;;;;;;15.43;9.83;;;14.40;99.90;;;;;;4188908;28;20194;-75
2023/09/02 05:26:37;;;;;;;13.17;9.03;;;14.40;99.90;;;;;;4189256;28;20263;-76
2023/09/02 05:28:39;;;;;;;15.33;10.10;;;14.40;99.90;;;;;;4189850;28;20657;-76
2023/09/02 05:30:41;;;;;;;16.10;10.47;;;14.40;99.90;;;;;;4191955;28;20619;-76
2023/09/02 05:32:44;;;;;;;14.30;9.73;;;14.50;99.90;;;;;;4190592;28;20581;-75
2023/09/02 05:34:46;;;;;;;14.83;9.67;;;14.50;99.90;;;;;;4187198;28;20620;-75
2023/09/02 05:36:48;;;;;;;14.97;9.77;;;14.50;99.90;;;;;;4189682;28;20201;-75
2023/09/02 05:38:50;;;;;;;12.33;8.43;;;14.50;99.90;;;;;;4190472;28;20715;-75
2023/09/02 05:40:52;;;;;;;12.20;8.40;;;14.60;99.90;;;;;;4190118;28;20233;-75
2023/09/02 05:42:52;;;;;;;12.77;8.17;;;14.50;99.90;;;;;;4189677;28;20756;-75
2023/09/02 05:44:54;;;;;;;12.17;7.60;;;14.60;99.90;;;;;;4188752;28;20255;-75
2023/09/02 05:46:56;;;;;;;13.53;8.53;;;14.60;99.90;;;;;;4188653;28;20679;-75
2023/09/02 05:49:00;;;;;;;14.50;8.57;;;14.60;99.90;;;;;;4188125;28;20215;-75
2023/09/02 05:51:01;;;;;;;10.40;7.00;;;14.70;99.90;;;;;;4187607;28;20222;-75
2023/09/02 05:53:04;;;;;;;10.07;6.97;;;14.70;99.90;;;;;;4191795;28;20206;-75
2023/09/02 05:55:07;;;;;;;10.87;7.50;;;14.70;99.90;;;;;;4189555;28;20202;-76
2023/09/02 05:57:09;;;;;;;13.60;8.50;;;14.80;99.90;;;;;;4192706;28;20241;-76
2023/09/02 05:59:11;;;;;;;11.00;7.03;;;14.80;99.90;;;;;;4189795;28;20212;-76
2023/09/02 06:01:13;;;;;;;12.03;7.97;;;14.80;99.90;;;;;;4191488;28;20234;-76
2023/09/02 06:03:15;;;;;;;11.03;7.63;;;14.90;99.90;;;;;;4190817;28;20207;-76
2023/09/02 06:05:18;;;;;;;10.13;7.00;;;14.90;99.90;;;;;;4191316;28;20610;-76
2023/09/02 06:07:19;;;;;;;14.60;8.30;;;14.90;99.90;;;;;;4190833;28;20201;-76
2023/09/02 06:09:21;;;;;;;10.57;7.43;;;14.90;99.90;;;;;;4192871;28;20609;-76
2023/09/02 06:11:22;;;;;;;12.73;7.53;;;15.00;99.90;;;;;;4191445;28;20232;-76
2023/09/02 06:13:24;;;;;;;10.47;7.30;;;15.00;99.90;;;;;;4190137;28;20802;-76
2023/09/02 06:15:26;;;;;;;8.87;6.50;;;15.10;99.90;;;;;;4190245;28;20616;-76
2023/09/02 06:17:30;;;;;;;11.27;7.40;;;15.10;99.90;;;;;;4187714;28;20253;-76
2023/09/02 06:19:32;;;;;;;9.03;6.60;;;15.10;99.90;;;;;;4186874;28;20735;-76
2023/09/02 06:21:36;;;;;;;9.00;6.37;;;15.10;99.90;;;;;;4187650;28;20237;-77
2023/09/02 06:23:38;;;;;;;9.87;6.50;;;15.20;99.90;;;;;;4192762;28;20208;-76
2023/09/02 06:25:40;;;;;;;10.30;6.33;;;15.20;99.90;;;;;;4194238;28;20661;-76
2023/09/02 06:27:42;;;;;;;10.00;6.83;;;15.30;99.90;;;;;;4188380;28;20210;-75
2023/09/02 06:29:44;;;;;;;11.10;6.40;;;15.30;99.90;;;;;;4187103;28;20204;-75
2023/09/02 06:31:46;;;;;;;9.23;6.17;;;15.40;99.90;;;;;;4185869;28;20279;-75
2023/09/02 06:33:48;;;;;;;12.90;7.50;;;15.40;99.90;;;;;;4189732;28;20316;-75
2023/09/02 06:35:51;;;;;;;9.47;6.50;;;15.50;99.90;;;;;;4192283;28;20203;-75
2023/09/02 06:37:54;;;;;;;10.93;8.07;;;15.60;99.90;;;;;;4188602;28;20557;-76
2023/09/02 06:39:56;;;;;;;8.67;6.53;;;15.60;99.90;;;;;;4186699;28;20200;-76
2023/09/02 06:41:58;;;;;;;8.87;6.50;;;15.60;99.90;;;;;;4189050;28;20567;-76
2023/09/02 06:44:00;;;;;;;8.97;5.73;;;15.60;99.90;;;;;;4188028;28;20249;-76
2023/09/02 06:46:09;;;;;;;10.47;7.33;;;15.70;99.90;;;;;;4189379;28;20215;-75
2023/09/02 06:48:11;;;;;;;10.90;6.83;;;15.70;99.90;;;;;;4206049;28;20279;-76
2023/09/02 06:50:13;;;;;;;11.57;7.40;;;15.80;99.90;;;;;;4189567;28;20207;-75
2023/09/02 06:52:15;;;;;;;11.13;7.07;;;15.80;99.90;;;;;;4187862;28;20208;-75
2023/09/02 06:54:18;;;;;;;11.43;7.40;;;15.80;99.90;;;;;;4188721;28;20224;-75
2023/09/02 06:56:20;;;;;;;11.03;6.90;;;15.90;99.90;;;;;;4185786;28;20257;-75
2023/09/02 06:58:21;;;;;;;11.03;7.40;;;15.90;99.90;;;;;;4186147;28;20204;-76
2023/09/02 07:00:23;;;;;;;12.53;6.93;;;15.90;99.90;;;;;;4187613;28;20269;-75
2023/09/02 07:02:25;;;;;;;9.47;6.57;;;16.00;99.90;;;;;;4190085;28;20598;-75
2023/09/02 07:04:27;;;;;;;10.43;6.50;;;16.00;99.90;;;;;;4187322;28;20261;-75
2023/09/02 07:06:28;;;;;;;10.20;6.67;;;16.00;99.90;;;;;;4188735;28;20262;-74
2023/09/02 07:08:29;;;;;;;8.27;6.20;;;16.10;99.90;;;;;;4188594;28;20582;-75
2023/09/02 07:10:33;;;;;;;10.33;6.40;;;16.10;99.90;;;;;;4190082;28;20234;-75
2023/09/02 07:12:35;;;;;;;6.90;5.47;;;16.20;99.90;;;;;;4189932;28;20207;-75
2023/09/02 07:14:37;;;;;;;9.77;6.37;;;16.20;99.90;;;;;;4190182;28;20765;-76
2023/09/02 07:16:39;;;;;;;9.13;6.40;;;16.30;99.90;;;;;;4192634;28;20208;-76
2023/09/02 07:18:40;;;;;;;8.30;6.20;;;16.40;99.90;;;;;;4192902;28;20203;-77
2023/09/02 07:20:42;;;;;;;7.53;5.97;;;16.40;99.90;;;;;;4191372;28;20605;-75
2023/09/02 07:22:44;;;;;;;8.77;5.83;;;16.50;99.90;;;;;;4187522;28;20208;-75
2023/09/02 07:24:47;;;;;;;7.90;6.00;;;16.50;99.90;;;;;;4185175;28;20201;-76
2023/09/02 07:26:50;;;;;;;10.70;5.47;;;16.50;99.90;;;;;;4183510;28;20749;-77
2023/09/02 07:28:52;;;;;;;10.20;6.53;;;16.60;99.90;;;;;;4186868;28;20223;-75
2023/09/02 07:30:56;;;;;;;7.63;5.90;;;16.60;99.90;;;;;;4188877;28;20557;-76
2023/09/02 07:32:58;;;;;;;7.47;6.00;;;16.70;99.90;;;;;;4185537;28;20257;-75
2023/09/02 07:35:00;;;;;;;13.67;6.60;;;16.80;99.90;;;;;;4187574;28;20225;-74
2023/09/02 07:37:01;;;;;;;9.37;6.77;;;16.80;99.90;;;;;;4188631;28;20663;-75
2023/09/02 07:39:04;;;;;;;11.80;7.60;;;16.80;99.90;;;;;;4192297;28;20256;-75
2023/09/02 07:41:06;;;;;;;11.27;7.83;;;16.80;99.90;;;;;;4189308;28;20272;-74
2023/09/02 07:43:08;;;;;;;11.33;7.10;;;16.80;99.90;;;;;;4188443;28;20678;-75
2023/09/02 07:45:11;;;;;;;10.63;7.60;;;16.90;99.90;;;;;;4192427;28;20217;-75
2023/09/02 07:47:13;;;;;;;12.63;7.80;;;16.90;99.90;;;;;;4189883;28;20220;-74
2023/09/02 07:49:15;;;;;;;15.60;9.00;;;16.90;99.90;;;;;;4189889;28;20207;-74
2023/09/02 07:51:17;;;;;;;14.17;7.93;;;17.00;99.90;;;;;;4190714;28;20606;-74
2023/09/02 07:53:18;;;;;;;10.13;7.37;;;17.00;99.90;;;;;;4187244;28;20222;-73
2023/09/02 07:55:20;;;;;;;10.60;7.43;;;17.00;99.90;;;;;;4191338;28;20225;-73
2023/09/02 07:57:22;;;;;;;13.93;8.20;;;17.10;99.90;;;;;;4187258;28;20208;-73
2023/09/02 07:59:25;;;;;;;11.63;7.17;;;17.20;99.90;;;;;;4189505;28;20212;-74
2023/09/02 08:01:30;;;;;;;11.30;7.30;;;17.20;99.90;;;;;;4188851;28;20770;-74
2023/09/02 08:03:35;;;;;;;10.80;7.57;;;17.30;99.90;;;;;;4186671;28;20216;-75
2023/09/02 08:05:40;;;;;;;12.43;8.27;;;17.30;99.90;;;;;;4188721;28;20213;-74
2023/09/02 08:07:42;;;;;;;10.70;7.60;;;17.40;99.90;;;;;;4187556;28;20210;-75
2023/09/02 08:09:44;;;;;;;10.83;7.63;;;17.40;99.90;;;;;;4182258;28;20263;-74
2023/09/02 08:11:46;;;;;;;11.33;7.70;;;17.50;99.90;;;;;;4186880;28;20225;-74
2023/09/02 08:13:48;;;;;;;10.93;7.83;;;17.50;99.90;;;;;;4189871;28;20623;-73
2023/09/02 08:15:51;;;;;;;10.43;7.53;;;17.50;99.90;;;;;;4193902;28;20286;-73
2023/09/02 08:17:53;;;;;;;10.53;7.20;;;17.50;99.90;;;;;;4184724;28;20267;-73
2023/09/02 08:19:55;;;;;;;11.80;7.50;;;17.60;99.90;;;;;;4187084;28;20271;-73
2023/09/02 08:21:57;;;;;;;12.87;7.50;;;17.70;99.90;;;;;;4185194;28;20254;-73
2023/09/02 08:23:59;;;;;;;9.63;6.47;;;17.70;99.90;;;;;;4193988;28;20194;-73
2023/09/02 08:26:06;;;;;;;11.43;7.37;;;17.80;99.90;;;;;;4193849;28;20201;-74
2023/09/02 08:28:09;;;;;;;10.60;7.30;;;17.80;99.90;;;;;;4189443;28;20238;-74
2023/09/02 08:30:12;;;;;;;9.37;7.47;;;17.90;99.90;;;;;;4187310;28;20210;-74
2023/09/02 08:32:15;;;;;;;9.50;6.90;;;18.00;99.90;;;;;;4192857;28;20216;-74
2023/09/02 08:34:17;;;;;;;9.27;6.80;;;18.00;99.90;;;;;;4188840;28;20703;-74
2023/09/02 08:36:19;;;;;;;9.13;6.93;;;18.00;99.90;;;;;;4187343;28;21054;-73
2023/09/02 08:38:21;;;;;;;10.17;7.20;;;18.00;99.90;;;;;;4193203;28;20215;-74
2023/09/02 08:40:23;;;;;;;7.90;6.33;;;18.00;99.90;;;;;;4188528;28;20621;-74
2023/09/02 08:42:25;;;;;;;8.77;6.13;;;18.10;99.90;;;;;;4186719;28;20610;-75
2023/09/02 08:44:28;;;;;;;8.67;6.47;;;18.10;99.90;;;;;;4185246;28;20213;-73
2023/09/02 08:46:33;;;;;;;9.67;7.10;;;18.20;99.90;;;;;;4185495;28;20587;-74
2023/09/02 08:48:42;;;;;;;9.57;6.60;;;18.20;99.90;;;;;;4185269;28;20217;-74
2023/09/02 08:50:43;;;;;;;8.47;6.80;;;18.30;99.90;;;;;;4186986;28;20229;-74
2023/09/02 08:52:45;;;;;;;9.93;7.10;;;18.30;99.90;;;;;;4186932;28;20240;-74
2023/09/02 08:54:48;;;;;;;9.83;7.47;;;18.40;99.90;;;;;;4185766;28;20305;-75
2023/09/02 08:56:50;;;;;;;7.33;5.73;;;18.50;99.90;;;;;;4187156;28;20525;-75
2023/09/02 08:58:54;;;;;;;8.83;5.90;;;18.50;99.90;;;;;;4186445;28;20210;-75
2023/09/02 09:00:56;;;;;;;9.00;5.93;;;18.60;99.90;;;;;;4187701;28;20767;-75
2023/09/02 09:02:58;;;;;;;11.50;5.90;;;18.70;99.90;;;;;;4187313;28;20198;-74
2023/09/02 09:05:03;;;;;;;7.50;6.17;;;18.70;99.90;;;;;;4186740;28;20194;-75
2023/09/02 09:07:06;;;;;;;8.10;5.50;;;18.80;99.90;;;;;;4183683;28;20247;-75
2023/09/02 09:09:09;;;;;;;5.90;4.77;;;18.90;99.90;;;;;;4186461;28;20740;-75
2023/09/02 09:11:12;;;;;;;8.83;6.00;;;18.90;99.90;;;;;;4186371;28;20233;-76
2023/09/02 09:13:16;;;;;;;6.43;5.20;;;18.90;99.90;;;;;;4200168;28;20209;-74
2023/09/02 09:15:19;;;;;;;7.37;5.80;;;19.00;99.90;;;;;;4186612;28;20301;-74
2023/09/02 09:17:22;;;;;;;9.50;6.30;;;19.10;99.90;;;;;;4189134;28;20221;-75
2023/09/02 09:19:25;;;;;;;7.50;5.90;;;19.10;99.90;;;;;;4184245;28;20218;-75
2023/09/02 09:21:28;;;;;;;9.67;5.77;;;19.20;99.90;;;;;;4183945;28;20654;-75
2023/09/02 09:23:30;;;;;;;6.80;5.37;;;19.20;99.90;;;;;;4189844;28;20215;-75
2023/09/02 09:25:32;;;;;;;8.73;5.90;;;19.30;99.90;;;;;;4188775;28;20604;-75
2023/09/02 09:27:34;;;;;;;6.37;5.30;;;19.40;99.90;;;;;;4194183;28;20232;-75
2023/09/02 09:29:41;;;;;;;6.50;5.33;;;19.50;99.90;;;;;;4182976;28;20219;-74
2023/09/02 09:31:44;;;;;;;7.93;5.80;;;19.50;99.90;;;;;;4186418;28;20279;-75
2023/09/02 09:33:51;;;;;;;8.27;4.97;;;19.60;99.90;;;;;;4185347;28;20197;-74
2023/09/02 09:35:53;;;;;;;6.73;4.87;;;19.70;99.90;;;;;;4188804;28;20216;-75
2023/09/02 09:37:57;;;;;;;7.97;5.77;;;19.80;99.90;;;;;;4187084;28;20206;-75
2023/09/02 09:40:01;;;;;;;7.23;5.60;;;19.90;99.90;;;;;;4187559;28;20216;-74
2023/09/02 09:42:03;;;;;;;10.10;6.50;;;20.00;99.90;;;;;;4194065;28;20214;-74
2023/09/02 09:44:05;;;;;;;6.03;4.70;;;20.20;99.90;;;;;;4188155;28;20236;-74
2023/09/02 09:46:07;;;;;;;6.00;4.90;;;20.20;99.90;;;;;;4190060;28;20202;-74
2023/09/02 09:48:10;;;;;;;5.53;4.20;;;20.30;99.90;;;;;;4188721;28;20210;-75
2023/09/02 09:50:14;;;;;;;4.57;3.73;;;20.30;99.90;;;;;;4193047;28;20263;-74
2023/09/02 09:52:16;;;;;;;5.40;4.40;;;20.40;99.90;;;;;;4188633;28;20554;-76
2023/09/02 09:54:19;;;;;;;4.87;3.83;;;20.40;99.90;;;;;;4188267;28;20292;-75
2023/09/02 09:56:21;;;;;;;6.10;4.43;;;20.50;99.90;;;;;;4188753;28;20669;-76
2023/09/02 09:58:24;;;;;;;4.90;4.23;;;20.50;99.90;;;;;;4188089;28;20226;-75
2023/09/02 10:00:27;;;;;;;7.20;4.77;;;20.50;99.90;;;;;;4180924;28;20350;-72
2023/09/02 10:02:29;;;;;;;6.13;4.23;;;20.60;99.90;;;;;;4186972;28;20681;-75
2023/09/02 10:04:31;;;;;;;4.87;3.80;;;20.70;99.90;;;;;;4193220;28;20211;-76
2023/09/02 10:06:37;;;;;;;5.63;4.07;;;20.80;99.90;;;;;;4195146;28;20211;-76
2023/09/02 10:08:50;;;;;;;4.50;4.10;;;20.90;99.90;;;;;;4192769;28;20284;-76
2023/09/02 10:10:54;;;;;;;5.90;4.03;;;21.00;99.90;;;;;;4189368;28;20228;-76
2023/09/02 10:12:56;;;;;;;5.50;4.73;;;21.10;99.90;;;;;;4188815;28;20210;-75
2023/09/02 10:14:59;;;;;;;5.37;4.73;;;21.20;99.90;;;;;;4190250;28;20220;-75
2023/09/02 10:17:01;;;;;;;6.43;4.63;;;21.30;99.90;;;;;;4192861;28;20208;-74
2023/09/02 10:19:04;;;;;;;5.30;4.57;;;21.30;99.90;;;;;;4190426;28;20760;-74
2023/09/02 10:21:05;;;;;;;5.30;4.60;;;21.40;99.90;;;;;;4193688;28;20283;-75
2023/09/02 10:23:08;;;;;;;6.13;4.77;;;21.50;99.90;;;;;;4191858;28;20247;-75
2023/09/02 10:25:19;;;;;;;5.40;4.63;;;21.50;99.90;;;;;;4191128;28;20262;-74
2023/09/02 10:27:24;;;;;;;5.20;4.03;;;21.50;99.90;;;;;;4193016;28;20221;-74
2023/09/02 10:29:29;;;;;;;5.37;4.10;;;21.50;99.90;;;;;;4194753;28;20206;-74
2023/09/02 10:31:36;;;;;;;3.87;3.47;;;21.50;99.90;;;;;;4191636;28;20232;-75
2023/09/02 10:33:43;;;;;;;3.50;3.20;;;21.50;99.90;;;;;;4192250;28;20230;-75
2023/09/02 10:35:50;;;;;;;3.97;3.10;;;21.50;99.90;;;;;;4190550;28;20904;-75
2023/09/02 10:37:56;;;;;;;4.17;3.00;;;21.60;99.90;;;;;;4188092;28;20204;-74